Terminal Aerodrome Forecast
Issued by NWS

Home | Current Version | Previous Version | Text Only | Print | Product List | Glossary On
Versions: 1 2 3 4 5 6 7 8 9 10 11 12 13 14 15 16 17 18 19 20 21
254
FTUS41 KCAR 290524
TAFFVE
TAF
KFVE 290524Z 2906/3006 33004KT P6SM FEW080
     FM290900 36002KT P6SM BKN050
     FM291700 27004KT P6SM SCT050
     FM292200 31005KT P6SM FEW050=

USA.gov is the U.S. government's official web portal to all federal, state and local government web resources and services.